Time;durP1;ratioP1;P1;durP2;ratioP2;P2;SDS_P1;SDS_P2;PMS_P1;PMS_P2;Temp;Humidity;BMP_temperature;BMP_pressure;BME280_temperature;BME280_humidity;BME280_pressure;Samples;Min_cycle;Max_cycle;Signal;HPM_P1;HPM_P2
2021/08/19 00:01:26;;;;;;;15.00;11.80;;;;;;;;;;4971814;28;20408;-45
2021/08/19 00:03:52;;;;;;;22.83;13.13;;;;;;;;;;4971534;28;20766;-45
2021/08/19 00:06:18;;;;;;;20.03;11.20;;;;;;;;;;4971793;28;20373;-45
2021/08/19 00:08:44;;;;;;;18.27;12.47;;;;;;;;;;4971401;28;21004;-46
2021/08/19 00:11:11;;;;;;;16.37;11.87;;;;;;;;;;4971461;28;20802;-48
2021/08/19 00:13:38;;;;;;;15.80;12.03;;;;;;;;;;4971770;28;20406;-45
2021/08/19 00:16:04;;;;;;;17.60;12.30;;;;;;;;;;4971601;28;20463;-45
2021/08/19 00:18:30;;;;;;;16.50;12.80;;;;;;;;;;4971426;28;20445;-45
2021/08/19 00:20:56;;;;;;;16.30;11.77;;;;;;;;;;4971544;28;20436;-45
2021/08/19 00:23:22;;;;;;;16.53;12.33;;;;;;;;;;4971638;28;20403;-45
2021/08/19 00:25:48;;;;;;;12.73;11.30;;;;;;;;;;4971419;28;20513;-45
2021/08/19 00:28:14;;;;;;;15.73;13.30;;;;;;;;;;4971436;28;20958;-45
2021/08/19 00:30:40;;;;;;;15.10;12.10;;;;;;;;;;4971315;28;20446;-45
2021/08/19 00:33:06;;;;;;;16.50;11.93;;;;;;;;;;4972276;28;20764;-46
2021/08/19 00:35:32;;;;;;;21.30;14.07;;;;;;;;;;4975136;28;20405;-46
2021/08/19 00:37:58;;;;;;;16.13;13.23;;;;;;;;;;4975188;28;20444;-48
2021/08/19 00:40:24;;;;;;;19.67;15.10;;;;;;;;;;4974673;28;20425;-48
2021/08/19 00:42:51;;;;;;;24.83;14.70;;;;;;;;;;4975063;28;20898;-45
2021/08/19 00:45:18;;;;;;;21.63;14.20;;;;;;;;;;4974974;28;20458;-44
2021/08/19 00:47:44;;;;;;;16.60;13.27;;;;;;;;;;4975174;28;20517;-45
2021/08/19 00:50:10;;;;;;;25.40;15.20;;;;;;;;;;4974746;28;20514;-45
2021/08/19 00:52:37;;;;;;;20.87;15.70;;;;;;;;;;4974940;28;20374;-46
2021/08/19 00:55:04;;;;;;;22.80;14.33;;;;;;;;;;4974785;28;20449;-45
2021/08/19 00:57:30;;;;;;;22.77;15.73;;;;;;;;;;4974805;28;21047;-47
2021/08/19 00:59:58;;;;;;;23.87;15.47;;;;;;;;;;4974341;28;20429;-44
2021/08/19 01:02:23;;;;;;;22.10;17.17;;;;;;;;;;4974116;28;20943;-44
2021/08/19 01:04:50;;;;;;;23.40;17.37;;;;;;;;;;4974111;28;20427;-44
2021/08/19 01:07:16;;;;;;;27.90;18.50;;;;;;;;;;4974456;28;20482;-44
2021/08/19 01:09:43;;;;;;;20.60;16.00;;;;;;;;;;4974215;28;20401;-44
2021/08/19 01:12:12;;;;;;;20.57;15.93;;;;;;;;;;4974467;28;20437;-47
2021/08/19 01:14:39;;;;;;;24.90;17.63;;;;;;;;;;4974318;28;20412;-44
2021/08/19 01:17:06;;;;;;;22.73;16.77;;;;;;;;;;4974342;28;20409;-46
2021/08/19 01:19:32;;;;;;;23.13;17.43;;;;;;;;;;4973990;28;20432;-44
2021/08/19 01:21:58;;;;;;;24.67;17.00;;;;;;;;;;4974279;28;20408;-45
2021/08/19 01:24:24;;;;;;;24.37;16.83;;;;;;;;;;4974099;28;20967;-45
2021/08/19 01:26:50;;;;;;;28.60;17.57;;;;;;;;;;4974107;28;20808;-45
2021/08/19 01:29:16;;;;;;;22.23;17.33;;;;;;;;;;4973859;28;20902;-45
2021/08/19 01:31:55;;;;;;;22.73;16.50;;;;;;;;;;4973908;28;20455;-45
2021/08/19 01:34:21;;;;;;;22.90;16.77;;;;;;;;;;4974052;28;20390;-48
2021/08/19 01:36:47;;;;;;;25.00;16.50;;;;;;;;;;4973880;28;20790;-47
2021/08/19 01:39:13;;;;;;;31.00;17.23;;;;;;;;;;4973667;28;20870;-45
2021/08/19 01:41:39;;;;;;;29.60;19.10;;;;;;;;;;4973691;28;20446;-44
2021/08/19 01:44:05;;;;;;;24.90;18.80;;;;;;;;;;4973771;28;20409;-45
2021/08/19 01:46:30;;;;;;;26.03;18.47;;;;;;;;;;4973086;28;20553;-45
2021/08/19 01:48:56;;;;;;;26.67;18.77;;;;;;;;;;4973504;28;20770;-45
2021/08/19 01:51:22;;;;;;;28.00;18.27;;;;;;;;;;4973523;28;20874;-47
2021/08/19 01:53:49;;;;;;;32.27;19.97;;;;;;;;;;4973638;28;20810;-45
2021/08/19 01:56:15;;;;;;;37.20;19.90;;;;;;;;;;4973511;28;20492;-45
2021/08/19 01:58:41;;;;;;;33.63;19.67;;;;;;;;;;4973330;28;20481;-45
2021/08/19 02:01:07;;;;;;;27.40;19.60;;;;;;;;;;4973438;28;20948;-46
2021/08/19 02:03:33;;;;;;;28.43;18.87;;;;;;;;;;4973485;28;20380;-47
2021/08/19 02:05:59;;;;;;;31.00;21.17;;;;;;;;;;4973218;28;20434;-45
2021/08/19 02:08:25;;;;;;;29.77;19.90;;;;;;;;;;4973201;28;20427;-45
2021/08/19 02:10:51;;;;;;;30.00;21.83;;;;;;;;;;4973114;28;20380;-45
2021/08/19 02:13:17;;;;;;;36.37;22.37;;;;;;;;;;4973399;28;20406;-45
2021/08/19 02:15:43;;;;;;;34.50;20.57;;;;;;;;;;4973224;28;20469;-45
2021/08/19 02:18:09;;;;;;;34.40;22.10;;;;;;;;;;4973116;28;20432;-45
2021/08/19 02:20:35;;;;;;;32.47;22.57;;;;;;;;;;4972805;28;20435;-45
2021/08/19 02:23:03;;;;;;;27.43;21.30;;;;;;;;;;4973188;28;20501;-45
2021/08/19 02:25:29;;;;;;;35.87;22.33;;;;;;;;;;4973078;28;20847;-45
2021/08/19 02:27:55;;;;;;;33.73;21.73;;;;;;;;;;4973143;28;20412;-45
2021/08/19 02:30:21;;;;;;;38.57;23.20;;;;;;;;;;4972715;28;20791;-45
2021/08/19 02:32:52;;;;;;;31.43;21.53;;;;;;;;;;4973054;28;20405;-45
2021/08/19 02:35:19;;;;;;;33.40;21.40;;;;;;;;;;4972936;28;20414;-47
2021/08/19 02:37:45;;;;;;;34.57;21.57;;;;;;;;;;4972969;28;20770;-45
2021/08/19 02:40:11;;;;;;;34.97;19.73;;;;;;;;;;4972594;28;20412;-47
2021/08/19 02:42:37;;;;;;;32.03;20.80;;;;;;;;;;4972905;28;20416;-45
2021/08/19 02:45:04;;;;;;;35.53;20.00;;;;;;;;;;4972685;28;20458;-47
2021/08/19 02:47:30;;;;;;;32.73;19.97;;;;;;;;;;4972571;28;20490;-45
2021/08/19 02:49:56;;;;;;;28.50;19.93;;;;;;;;;;4972335;28;20480;-45
2021/08/19 02:52:23;;;;;;;34.30;20.10;;;;;;;;;;4972477;28;20402;-46
2021/08/19 02:54:49;;;;;;;33.53;20.77;;;;;;;;;;4972563;28;20372;-45
2021/08/19 02:57:15;;;;;;;31.67;20.13;;;;;;;;;;4971542;28;20422;-45
2021/08/19 02:59:41;;;;;;;31.03;20.20;;;;;;;;;;4972191;28;20425;-45
2021/08/19 03:02:07;;;;;;;33.63;21.57;;;;;;;;;;4972338;28;20402;-47
2021/08/19 03:04:33;;;;;;;33.60;20.40;;;;;;;;;;4972314;28;20484;-47
2021/08/19 03:06:59;;;;;;;31.90;20.60;;;;;;;;;;4972321;28;20399;-47
2021/08/19 03:09:25;;;;;;;31.47;20.23;;;;;;;;;;4972039;28;20400;-44
2021/08/19 03:11:51;;;;;;;34.83;20.10;;;;;;;;;;4972123;28;20410;-45
2021/08/19 03:14:17;;;;;;;36.50;20.33;;;;;;;;;;4972304;28;20474;-45
2021/08/19 03:16:43;;;;;;;39.67;21.17;;;;;;;;;;4972091;28;20455;-45
2021/08/19 03:19:09;;;;;;;32.20;22.10;;;;;;;;;;4972009;28;20399;-45
2021/08/19 03:21:37;;;;;;;29.37;20.90;;;;;;;;;;4972070;28;20374;-45
2021/08/19 03:24:03;;;;;;;33.90;22.07;;;;;;;;;;4972128;28;20381;-47
2021/08/19 03:26:31;;;;;;;31.03;21.20;;;;;;;;;;4972098;28;20410;-47
2021/08/19 03:28:56;;;;;;;34.57;21.50;;;;;;;;;;4971880;28;20931;-45
2021/08/19 03:31:24;;;;;;;33.77;20.80;;;;;;;;;;4971931;28;20413;-44
2021/08/19 03:33:50;;;;;;;33.43;21.20;;;;;;;;;;4972204;28;20397;-45
2021/08/19 03:36:16;;;;;;;29.80;19.73;;;;;;;;;;4971985;28;20461;-45
2021/08/19 03:38:43;;;;;;;34.97;21.70;;;;;;;;;;4971709;28;20787;-45
2021/08/19 03:41:09;;;;;;;32.03;20.33;;;;;;;;;;4971872;28;20419;-45
2021/08/19 03:43:35;;;;;;;25.87;19.33;;;;;;;;;;4971967;28;20408;-45
2021/08/19 03:46:01;;;;;;;35.17;21.30;;;;;;;;;;4971752;28;21047;-45
2021/08/19 03:48:27;;;;;;;24.70;19.17;;;;;;;;;;4971645;28;20779;-45
2021/08/19 03:50:53;;;;;;;32.43;20.23;;;;;;;;;;4971781;28;20438;-45
2021/08/19 03:53:19;;;;;;;29.27;19.20;;;;;;;;;;4971734;28;20395;-45
2021/08/19 03:55:45;;;;;;;35.97;20.50;;;;;;;;;;4971830;28;20382;-45
2021/08/19 03:58:11;;;;;;;28.63;18.37;;;;;;;;;;4971626;28;20412;-45
2021/08/19 04:00:37;;;;;;;33.10;20.10;;;;;;;;;;4971545;28;20428;-45
2021/08/19 04:03:03;;;;;;;27.70;19.80;;;;;;;;;;4971735;28;20463;-44
2021/08/19 04:05:29;;;;;;;27.60;17.40;;;;;;;;;;4971755;28;20851;-45
2021/08/19 04:07:55;;;;;;;23.13;17.30;;;;;;;;;;4972249;28;20380;-45
2021/08/19 04:10:21;;;;;;;26.97;19.47;;;;;;;;;;4975379;28;20781;-45
2021/08/19 04:12:47;;;;;;;31.23;18.80;;;;;;;;;;4975448;28;20393;-45
2021/08/19 04:15:14;;;;;;;27.90;19.00;;;;;;;;;;4975560;28;20788;-45
2021/08/19 04:17:40;;;;;;;26.20;18.13;;;;;;;;;;4975405;28;20414;-45
2021/08/19 04:20:07;;;;;;;21.10;16.93;;;;;;;;;;4975233;28;20846;-45
2021/08/19 04:22:33;;;;;;;22.43;14.77;;;;;;;;;;4975371;28;20420;-45
2021/08/19 04:24:59;;;;;;;17.93;13.40;;;;;;;;;;4975323;28;20446;-44
2021/08/19 04:27:25;;;;;;;15.37;12.13;;;;;;;;;;4975189;28;20410;-45
2021/08/19 04:29:50;;;;;;;16.77;12.67;;;;;;;;;;4974944;28;20972;-45
2021/08/19 04:32:17;;;;;;;17.60;12.80;;;;;;;;;;4975318;28;20410;-45
2021/08/19 04:34:43;;;;;;;17.40;13.00;;;;;;;;;;4975265;28;20514;-44
2021/08/19 04:37:09;;;;;;;17.73;13.20;;;;;;;;;;4975093;28;20408;-45
2021/08/19 04:39:35;;;;;;;26.00;15.40;;;;;;;;;;4974789;28;20953;-45
2021/08/19 04:42:01;;;;;;;23.73;16.20;;;;;;;;;;4974900;28;20897;-45
2021/08/19 04:44:27;;;;;;;28.07;16.67;;;;;;;;;;4974896;28;20499;-45
2021/08/19 04:46:53;;;;;;;23.47;18.90;;;;;;;;;;4974890;28;20405;-45
2021/08/19 04:49:19;;;;;;;27.63;18.47;;;;;;;;;;4974639;28;20421;-45
2021/08/19 04:51:45;;;;;;;24.93;18.47;;;;;;;;;;4974689;28;20491;-45
2021/08/19 04:54:11;;;;;;;28.67;19.23;;;;;;;;;;4974820;28;20398;-45
2021/08/19 04:56:37;;;;;;;29.20;19.37;;;;;;;;;;4974712;28;20397;-45
2021/08/19 04:59:08;;;;;;;31.73;21.00;;;;;;;;;;4974397;28;20453;-45
2021/08/19 05:01:34;;;;;;;42.77;21.63;;;;;;;;;;4974500;28;20380;-45
2021/08/19 05:04:00;;;;;;;39.60;22.07;;;;;;;;;;4974310;28;20373;-45
2021/08/19 05:06:27;;;;;;;36.10;23.47;;;;;;;;;;4974337;28;20445;-46
2021/08/19 05:08:53;;;;;;;40.03;20.40;;;;;;;;;;4973864;28;20426;-46
2021/08/19 05:11:19;;;;;;;32.80;20.63;;;;;;;;;;4973700;28;20419;-45
2021/08/19 05:13:45;;;;;;;41.80;22.37;;;;;;;;;;4973641;28;20405;-45
2021/08/19 05:16:11;;;;;;;42.37;23.03;;;;;;;;;;4974865;28;20384;-46
2021/08/19 05:18:39;;;;;;;37.23;21.80;;;;;;;;;;4973838;28;20409;-47
2021/08/19 05:21:05;;;;;;;42.17;25.40;;;;;;;;;;4973206;28;20425;-45
2021/08/19 05:23:31;;;;;;;39.30;23.10;;;;;;;;;;4974118;28;20381;-45
2021/08/19 05:25:56;;;;;;;48.80;24.73;;;;;;;;;;4974063;28;20457;-47
2021/08/19 05:28:22;;;;;;;42.07;23.40;;;;;;;;;;4973801;28;20395;-47
2021/08/19 05:30:48;;;;;;;43.93;23.40;;;;;;;;;;4974052;28;20377;-45
2021/08/19 05:33:14;;;;;;;38.37;23.17;;;;;;;;;;4974016;28;20484;-45
2021/08/19 05:35:40;;;;;;;37.33;22.00;;;;;;;;;;4974010;28;20413;-44
2021/08/19 05:38:06;;;;;;;44.20;23.37;;;;;;;;;;4973828;28;20417;-45
2021/08/19 05:40:32;;;;;;;39.47;22.03;;;;;;;;;;4973612;28;20433;-45
2021/08/19 05:42:58;;;;;;;42.80;21.50;;;;;;;;;;4973733;28;20429;-47
2021/08/19 05:45:24;;;;;;;47.60;21.83;;;;;;;;;;4973787;28;20464;-48
2021/08/19 05:47:50;;;;;;;40.53;23.47;;;;;;;;;;4973768;28;20372;-44
2021/08/19 05:50:16;;;;;;;37.23;21.97;;;;;;;;;;4973480;28;20959;-44
2021/08/19 05:52:43;;;;;;;36.90;21.70;;;;;;;;;;4973628;28;20406;-45
2021/08/19 05:55:10;;;;;;;41.53;22.23;;;;;;;;;;4973650;28;20413;-46
2021/08/19 05:57:35;;;;;;;41.40;23.00;;;;;;;;;;4973657;28;20475;-44
2021/08/19 06:00:02;;;;;;;46.73;21.97;;;;;;;;;;4973192;28;20921;-45
2021/08/19 06:02:28;;;;;;;47.63;22.53;;;;;;;;;;4973514;28;20472;-45
2021/08/19 06:04:54;;;;;;;48.77;25.20;;;;;;;;;;4973327;28;20552;-44
2021/08/19 06:07:20;;;;;;;47.70;25.60;;;;;;;;;;4973446;28;20408;-45
2021/08/19 06:09:47;;;;;;;47.60;25.20;;;;;;;;;;4972968;28;20399;-45
2021/08/19 06:12:13;;;;;;;47.97;25.97;;;;;;;;;;4973363;28;20477;-44
2021/08/19 06:14:39;;;;;;;45.53;23.67;;;;;;;;;;4973278;28;20407;-45
2021/08/19 06:17:05;;;;;;;42.13;24.47;;;;;;;;;;4973315;28;20406;-45
2021/08/19 06:19:31;;;;;;;42.80;23.73;;;;;;;;;;4972858;28;20425;-44
2021/08/19 06:21:57;;;;;;;39.23;24.17;;;;;;;;;;4973261;28;20410;-45
2021/08/19 06:24:23;;;;;;;46.40;24.37;;;;;;;;;;4973106;28;20896;-45
2021/08/19 06:26:49;;;;;;;46.10;23.80;;;;;;;;;;4973187;28;20514;-44
2021/08/19 06:29:15;;;;;;;43.17;24.80;;;;;;;;;;4972779;28;20431;-44
2021/08/19 06:31:41;;;;;;;40.80;23.87;;;;;;;;;;4972821;28;20412;-44
2021/08/19 06:34:07;;;;;;;41.50;23.50;;;;;;;;;;4972975;28;20811;-45
2021/08/19 06:36:33;;;;;;;39.53;24.70;;;;;;;;;;4973113;28;20410;-45
2021/08/19 06:38:59;;;;;;;41.13;23.63;;;;;;;;;;4972728;28;20920;-45
2021/08/19 06:41:26;;;;;;;40.10;22.83;;;;;;;;;;4972995;28;20417;-44
2021/08/19 06:43:52;;;;;;;35.60;21.63;;;;;;;;;;4973032;28;20410;-48
2021/08/19 06:46:18;;;;;;;33.53;21.53;;;;;;;;;;4972947;28;20509;-48
2021/08/19 06:48:44;;;;;;;32.73;21.60;;;;;;;;;;4972657;28;20756;-49
2021/08/19 06:51:10;;;;;;;34.53;20.23;;;;;;;;;;4972922;28;20445;-44
2021/08/19 06:53:37;;;;;;;29.43;20.23;;;;;;;;;;4972808;28;20404;-43
2021/08/19 06:56:03;;;;;;;35.80;21.03;;;;;;;;;;4972820;28;20494;-43
2021/08/19 06:58:29;;;;;;;40.47;20.10;;;;;;;;;;4972324;28;20897;-44
2021/08/19 07:00:56;;;;;;;31.37;19.43;;;;;;;;;;4972463;28;20871;-45
2021/08/19 07:03:22;;;;;;;33.63;22.77;;;;;;;;;;4972490;28;20396;-44
2021/08/19 07:05:48;;;;;;;31.10;19.90;;;;;;;;;;4972281;28;20475;-44
2021/08/19 07:08:17;;;;;;;32.73;21.40;;;;;;;;;;4972300;28;20377;-49
2021/08/19 07:10:43;;;;;;;38.60;20.93;;;;;;;;;;4972058;28;20402;-44
2021/08/19 07:13:09;;;;;;;27.97;19.57;;;;;;;;;;4972333;28;21038;-45
2021/08/19 07:15:35;;;;;;;33.17;20.37;;;;;;;;;;4972200;28;20452;-45
2021/08/19 07:18:01;;;;;;;42.13;20.67;;;;;;;;;;4972281;28;20441;-45
2021/08/19 07:20:28;;;;;;;36.00;20.77;;;;;;;;;;4971772;28;20413;-45
2021/08/19 07:22:54;;;;;;;30.60;21.80;;;;;;;;;;4972217;28;20418;-45
2021/08/19 07:25:21;;;;;;;31.70;21.17;;;;;;;;;;4972022;28;20436;-44
2021/08/19 07:27:48;;;;;;;40.73;23.03;;;;;;;;;;4972161;28;21076;-44
2021/08/19 07:30:14;;;;;;;35.40;21.60;;;;;;;;;;4971646;28;20414;-46
2021/08/19 07:32:40;;;;;;;29.73;19.60;;;;;;;;;;4972000;28;20411;-46
2021/08/19 07:35:07;;;;;;;34.07;20.43;;;;;;;;;;4971918;28;20477;-46
2021/08/19 07:37:33;;;;;;;33.17;22.10;;;;;;;;;;4972068;28;20391;-45
2021/08/19 07:39:59;;;;;;;28.97;19.53;;;;;;;;;;4971594;28;20497;-47
2021/08/19 07:42:25;;;;;;;32.53;20.97;;;;;;;;;;4969628;28;20389;-46
2021/08/19 07:44:50;;;;;;;31.10;19.57;;;;;;;;;;4977879;28;20821;-47
2021/08/19 07:47:19;;;;;;;33.47;21.03;;;;;;;;;;4979445;28;20482;-45
2021/08/19 07:49:46;;;;;;;27.57;19.43;;;;;;;;;;4961336;28;20437;-45
2021/08/19 07:52:11;;;;;;;31.53;20.37;;;;;;;;;;4978272;28;20543;-46
2021/08/19 07:54:37;;;;;;;29.87;20.67;;;;;;;;;;4978312;28;20413;-46
2021/08/19 07:57:04;;;;;;;28.93;20.83;;;;;;;;;;4978172;28;20416;-46
2021/08/19 07:59:31;;;;;;;34.20;20.07;;;;;;;;;;4978027;28;20462;-46
2021/08/19 08:01:56;;;;;;;33.83;22.20;;;;;;;;;;4978259;28;20500;-46
2021/08/19 08:04:22;;;;;;;36.30;20.93;;;;;;;;;;4978063;28;20399;-46
2021/08/19 08:06:48;;;;;;;32.60;20.43;;;;;;;;;;4978125;28;20380;-46
2021/08/19 08:09:14;;;;;;;31.07;20.50;;;;;;;;;;4977972;28;20450;-46
2021/08/19 08:11:41;;;;;;;30.20;20.77;;;;;;;;;;4977839;28;20398;-45
2021/08/19 08:14:07;;;;;;;36.57;20.80;;;;;;;;;;4978154;28;20382;-45
2021/08/19 08:16:33;;;;;;;28.57;19.03;;;;;;;;;;4977926;28;20418;-46
2021/08/19 08:19:02;;;;;;;31.33;18.13;;;;;;;;;;4977735;28;20410;-45
2021/08/19 08:21:28;;;;;;;25.23;18.00;;;;;;;;;;4977964;28;20394;-46
2021/08/19 08:23:55;;;;;;;21.83;17.57;;;;;;;;;;4978037;28;20386;-46
2021/08/19 08:26:21;;;;;;;29.10;19.17;;;;;;;;;;4978004;28;20436;-46
2021/08/19 08:28:50;;;;;;;21.87;17.63;;;;;;;;;;4977701;28;20431;-45
2021/08/19 08:31:16;;;;;;;26.93;19.27;;;;;;;;;;4977766;28;20407;-46
2021/08/19 08:33:42;;;;;;;29.27;18.13;;;;;;;;;;4978214;28;20470;-46
2021/08/19 08:36:08;;;;;;;29.90;19.43;;;;;;;;;;4977878;28;20795;-45
2021/08/19 08:38:34;;;;;;;22.17;18.00;;;;;;;;;;4977727;28;20477;-46
2021/08/19 08:41:00;;;;;;;27.80;18.70;;;;;;;;;;4977767;28;20386;-46
2021/08/19 08:43:28;;;;;;;30.83;17.27;;;;;;;;;;4977908;28;20388;-46
2021/08/19 08:45:55;;;;;;;26.07;18.40;;;;;;;;;;4977666;28;20951;-46
2021/08/19 08:48:22;;;;;;;27.50;17.70;;;;;;;;;;4978060;28;20431;-46
2021/08/19 08:50:49;;;;;;;27.73;18.50;;;;;;;;;;4978049;28;20465;-47
2021/08/19 08:53:15;;;;;;;27.97;16.90;;;;;;;;;;4978096;28;20382;-46
2021/08/19 08:55:42;;;;;;;22.90;17.63;;;;;;;;;;4975276;28;20389;-46
2021/08/19 08:58:08;;;;;;;25.83;17.73;;;;;;;;;;4974746;28;20448;-44
2021/08/19 09:00:35;;;;;;;26.90;18.60;;;;;;;;;;4974366;28;20770;-45
2021/08/19 09:03:01;;;;;;;35.33;18.27;;;;;;;;;;4974729;28;20412;-46
2021/08/19 09:05:29;;;;;;;25.20;18.00;;;;;;;;;;4974743;28;20434;-46
2021/08/19 09:07:59;;;;;;;23.37;17.40;;;;;;;;;;4974588;28;20465;-45
2021/08/19 09:10:27;;;;;;;21.23;15.50;;;;;;;;;;4974243;28;20398;-46
2021/08/19 09:12:53;;;;;;;27.07;17.20;;;;;;;;;;4974215;28;20582;-46
2021/08/19 09:15:20;;;;;;;22.70;16.27;;;;;;;;;;4974599;28;20406;-46
2021/08/19 09:17:53;;;;;;;25.23;15.40;;;;;;;;;;4974389;28;20471;-46
2021/08/19 09:20:21;;;;;;;30.97;17.63;;;;;;;;;;4974198;28;20446;-46
2021/08/19 09:22:50;;;;;;;26.57;17.70;;;;;;;;;;4974256;28;20530;-46
2021/08/19 09:25:26;;;;;;;25.60;16.03;;;;;;;;;;4974155;28;20957;-46
2021/08/19 09:28:08;;;;;;;36.80;18.97;;;;;;;;;;4974369;28;20769;-46
2021/08/19 09:30:35;;;;;;;25.43;16.07;;;;;;;;;;4973864;28;20407;-45
2021/08/19 09:33:05;;;;;;;32.47;17.93;;;;;;;;;;4974057;28;20417;-46
2021/08/19 09:35:32;;;;;;;26.60;18.97;;;;;;;;;;4974076;28;20752;-46
2021/08/19 09:37:58;;;;;;;25.23;17.43;;;;;;;;;;4973851;28;20420;-46
2021/08/19 09:40:24;;;;;;;24.80;19.33;;;;;;;;;;4973688;28;20792;-46
2021/08/19 09:42:50;;;;;;;28.37;19.10;;;;;;;;;;4973904;28;20406;-45
2021/08/19 09:45:22;;;;;;;29.87;18.17;;;;;;;;;;4973757;28;20451;-45
2021/08/19 09:47:50;;;;;;;26.27;19.47;;;;;;;;;;4973774;28;20439;-46
2021/08/19 09:50:17;;;;;;;30.33;18.37;;;;;;;;;;4973423;28;20505;-46
2021/08/19 09:52:44;;;;;;;30.30;19.40;;;;;;;;;;4973625;28;20471;-45
2021/08/19 09:55:23;;;;;;;31.70;19.20;;;;;;;;;;4973889;28;20407;-46
2021/08/19 09:57:49;;;;;;;27.90;19.03;;;;;;;;;;4973724;28;20417;-46
2021/08/19 10:00:32;;;;;;;31.57;20.20;;;;;;;;;;4973284;28;20446;-46
2021/08/19 10:02:59;;;;;;;29.00;19.60;;;;;;;;;;4973444;28;20419;-46
2021/08/19 10:05:25;;;;;;;27.93;19.47;;;;;;;;;;4973180;28;20437;-45
2021/08/19 10:07:51;;;;;;;30.77;19.27;;;;;;;;;;4973192;28;20461;-46
2021/08/19 10:10:18;;;;;;;36.40;19.60;;;;;;;;;;4968183;28;20414;-46
2021/08/19 10:12:45;;;;;;;25.70;18.70;;;;;;;;;;4955990;28;20539;-46
2021/08/19 10:15:12;;;;;;;30.77;20.30;;;;;;;;;;4973222;28;20412;-45
2021/08/19 10:17:40;;;;;;;33.90;19.60;;;;;;;;;;4973187;28;20792;-46
2021/08/19 10:20:07;;;;;;;30.90;19.33;;;;;;;;;;4973547;28;20403;-46
2021/08/19 10:22:34;;;;;;;27.33;18.67;;;;;;;;;;4973549;28;20408;-46
2021/08/19 10:25:00;;;;;;;25.70;17.80;;;;;;;;;;4972985;28;20957;-46
2021/08/19 10:27:28;;;;;;;27.63;17.97;;;;;;;;;;4973122;28;20433;-46
2021/08/19 10:29:59;;;;;;;35.73;18.70;;;;;;;;;;4972521;28;20402;-46
2021/08/19 10:32:25;;;;;;;32.27;18.90;;;;;;;;;;4973086;28;20901;-46
2021/08/19 10:35:27;;;;;;;30.23;20.60;;;;;;;;;;4973068;28;20394;-46
2021/08/19 10:37:53;;;;;;;33.03;21.23;;;;;;;;;;4932224;29;20401;-46
2021/08/19 10:40:22;;;;;;;32.80;21.40;;;;;;;;;;4964165;28;20460;-46
2021/08/19 10:42:48;;;;;;;31.07;20.43;;;;;;;;;;4973057;28;20469;-46
2021/08/19 10:45:29;;;;;;;31.53;21.10;;;;;;;;;;4972848;28;20488;-46
2021/08/19 10:47:55;;;;;;;28.73;19.13;;;;;;;;;;4973128;28;20390;-46
2021/08/19 10:50:22;;;;;;;30.17;18.40;;;;;;;;;;4972192;28;20828;-46
2021/08/19 10:52:48;;;;;;;25.07;19.70;;;;;;;;;;4973028;28;20378;-47
2021/08/19 10:55:15;;;;;;;26.13;18.13;;;;;;;;;;4972824;28;20408;-46
2021/08/19 10:57:54;;;;;;;33.50;17.30;;;;;;;;;;4972987;28;20379;-46
2021/08/19 11:00:39;;;;;;;22.13;16.97;;;;;;;;;;4972413;28;20414;-45
2021/08/19 11:03:05;;;;;;;21.60;17.60;;;;;;;;;;4953373;29;20395;-46
2021/08/19 11:05:31;;;;;;;22.73;17.50;;;;;;;;;;4953185;29;20512;-46
2021/08/19 11:07:59;;;;;;;22.60;16.63;;;;;;;;;;4953370;29;20891;-46
2021/08/19 11:10:32;;;;;;;18.20;14.70;;;;;;;;;;4952691;28;20398;-46
2021/08/19 11:13:05;;;;;;;17.50;15.17;;;;;;;;;;4952901;29;20444;-46
2021/08/19 11:15:32;;;;;;;18.53;14.47;;;;;;;;;;4952939;29;20497;-46
2021/08/19 11:17:58;;;;;;;18.43;15.13;;;;;;;;;;4952537;28;20428;-46
2021/08/19 11:20:30;;;;;;;18.47;15.20;;;;;;;;;;4952740;28;20405;-45
2021/08/19 11:23:07;;;;;;;17.60;14.37;;;;;;;;;;4953093;29;20416;-48
2021/08/19 11:25:36;;;;;;;16.40;13.23;;;;;;;;;;4952669;29;21147;-45
2021/08/19 11:28:15;;;;;;;14.10;12.60;;;;;;;;;;4952795;29;20400;-48
2021/08/19 11:30:45;;;;;;;19.03;13.20;;;;;;;;;;4952435;28;20400;-47
2021/08/19 11:33:16;;;;;;;17.33;13.30;;;;;;;;;;4952944;29;20407;-48
2021/08/19 11:35:43;;;;;;;12.87;11.23;;;;;;;;;;4953031;29;20402;-45
2021/08/19 11:38:10;;;;;;;13.43;12.00;;;;;;;;;;4952749;29;20415;-45
2021/08/19 11:40:37;;;;;;;16.60;11.50;;;;;;;;;;4952399;28;20489;-45
2021/08/19 11:43:22;;;;;;;16.17;12.20;;;;;;;;;;4952241;29;20445;-45
2021/08/19 11:45:49;;;;;;;11.27;9.77;;;;;;;;;;4952520;29;20460;-48
2021/08/19 11:48:18;;;;;;;13.50;9.93;;;;;;;;;;4952449;29;20411;-45
2021/08/19 11:50:44;;;;;;;12.83;10.60;;;;;;;;;;4952704;28;20441;-45
2021/08/19 11:53:11;;;;;;;13.60;9.33;;;;;;;;;;4952534;29;20461;-45
2021/08/19 11:55:38;;;;;;;11.90;9.43;;;;;;;;;;4952763;29;20599;-44
2021/08/19 11:58:20;;;;;;;10.63;9.53;;;;;;;;;;4952982;29;20419;-45
2021/08/19 12:01:05;;;;;;;14.73;9.50;;;;;;;;;;4952471;29;20402;-45
2021/08/19 12:03:35;;;;;;;10.60;9.40;;;;;;;;;;4952544;29;20412;-45
2021/08/19 12:06:09;;;;;;;7.77;7.07;;;;;;;;;;4952248;29;20850;-45
2021/08/19 12:08:36;;;;;;;8.97;8.00;;;;;;;;;;4952402;28;20802;-44
2021/08/19 12:11:03;;;;;;;9.00;5.83;;;;;;;;;;4952277;29;20924;-47
2021/08/19 12:13:30;;;;;;;6.60;6.00;;;;;;;;;;4952325;29;20410;-46
2021/08/19 12:15:56;;;;;;;7.03;6.07;;;;;;;;;;4952455;29;20412;-48
2021/08/19 12:18:23;;;;;;;7.93;5.93;;;;;;;;;;4951855;28;20420;-45
2021/08/19 12:20:50;;;;;;;6.37;4.87;;;;;;;;;;4952560;29;20452;-45
2021/08/19 12:23:18;;;;;;;6.70;5.00;;;;;;;;;;4952517;29;20409;-45
2021/08/19 12:25:44;;;;;;;10.53;5.40;;;;;;;;;;4952187;29;20471;-44
2021/08/19 12:28:10;;;;;;;6.63;5.07;;;;;;;;;;4952124;29;20407;-45
2021/08/19 12:30:36;;;;;;;5.13;4.53;;;;;;;;;;4955015;28;20929;-45
2021/08/19 12:33:04;;;;;;;10.13;4.77;;;;;;;;;;4955724;29;20413;-47
2021/08/19 12:35:30;;;;;;;4.70;4.30;;;;;;;;;;4955858;29;20894;-44
2021/08/19 12:37:58;;;;;;;5.60;4.90;;;;;;;;;;4955886;29;20735;-45
2021/08/19 12:40:28;;;;;;;6.10;5.00;;;;;;;;;;4955472;28;20459;-47
2021/08/19 12:43:03;;;;;;;4.93;4.60;;;;;;;;;;4955602;29;20494;-45
2021/08/19 12:45:29;;;;;;;6.83;5.27;;;;;;;;;;4955526;29;20458;-45
2021/08/19 12:48:02;;;;;;;6.03;4.70;;;;;;;;;;4955703;29;20408;-47
2021/08/19 12:50:28;;;;;;;4.87;4.40;;;;;;;;;;4955340;28;20429;-45
2021/08/19 12:53:04;;;;;;;4.67;4.27;;;;;;;;;;4955837;29;20437;-45
2021/08/19 12:55:30;;;;;;;5.73;5.23;;;;;;;;;;4955691;29;20406;-45
2021/08/19 12:57:56;;;;;;;7.10;5.23;;;;;;;;;;4955478;29;20415;-45
2021/08/19 13:00:23;;;;;;;8.07;5.57;;;;;;;;;;4955065;28;20428;-45
2021/08/19 13:02:50;;;;;;;5.13;4.63;;;;;;;;;;4955444;29;20414;-47
2021/08/19 13:05:17;;;;;;;8.20;4.93;;;;;;;;;;4955419;29;20786;-44
2021/08/19 13:07:46;;;;;;;6.00;4.77;;;;;;;;;;4955419;29;20964;-45
2021/08/19 13:10:12;;;;;;;6.13;5.00;;;;;;;;;;4954969;28;20428;-45
2021/08/19 13:12:38;;;;;;;5.43;4.50;;;;;;;;;;4955256;29;20418;-45
2021/08/19 13:15:05;;;;;;;5.10;4.60;;;;;;;;;;4955704;29;20969;-45
2021/08/19 13:17:31;;;;;;;6.50;4.60;;;;;;;;;;4955417;29;20419;-45
2021/08/19 13:19:57;;;;;;;14.03;5.17;;;;;;;;;;4954904;28;20502;-45
2021/08/19 13:22:24;;;;;;;12.67;4.50;;;;;;;;;;4955244;29;20409;-45
2021/08/19 13:24:50;;;;;;;5.90;5.10;;;;;;;;;;4954814;29;20471;-45
2021/08/19 13:27:17;;;;;;;5.70;4.53;;;;;;;;;;4954902;29;20793;-48
2021/08/19 13:29:43;;;;;;;5.00;4.47;;;;;;;;;;4954527;28;20399;-45
2021/08/19 13:32:09;;;;;;;6.13;4.67;;;;;;;;;;4955032;29;20417;-45
2021/08/19 13:34:36;;;;;;;8.50;5.13;;;;;;;;;;4954817;29;20442;-45
2021/08/19 13:37:02;;;;;;;7.53;5.40;;;;;;;;;;4954850;29;20781;-44
2021/08/19 13:39:28;;;;;;;11.40;5.20;;;;;;;;;;4954363;28;20423;-45
2021/08/19 13:41:54;;;;;;;5.77;5.23;;;;;;;;;;4953781;28;20398;-45
2021/08/19 13:44:20;;;;;;;5.67;5.17;;;;;;;;;;4954693;29;20427;-46
2021/08/19 13:46:46;;;;;;;8.07;5.40;;;;;;;;;;4954479;29;20475;-47
2021/08/19 13:49:12;;;;;;;6.33;4.70;;;;;;;;;;4954262;28;20425;-48
2021/08/19 13:51:38;;;;;;;5.63;5.13;;;;;;;;;;4954372;29;20436;-45
2021/08/19 13:54:04;;;;;;;7.00;5.50;;;;;;;;;;4954343;29;20811;-45
2021/08/19 13:56:31;;;;;;;6.63;5.47;;;;;;;;;;4954341;29;20438;-45
2021/08/19 13:58:57;;;;;;;6.33;4.67;;;;;;;;;;4954274;28;20428;-47
2021/08/19 14:01:25;;;;;;;6.60;4.80;;;;;;;;;;4954282;29;20421;-45
2021/08/19 14:03:51;;;;;;;6.00;4.60;;;;;;;;;;4954319;29;20490;-47
2021/08/19 14:06:17;;;;;;;5.00;4.60;;;;;;;;;;4954109;29;20557;-45
2021/08/19 14:08:43;;;;;;;7.30;5.23;;;;;;;;;;4953795;28;20852;-45
2021/08/19 14:11:10;;;;;;;8.07;5.60;;;;;;;;;;4954191;29;20893;-45
2021/08/19 14:13:35;;;;;;;5.20;4.53;;;;;;;;;;4953998;29;20901;-45
2021/08/19 14:16:02;;;;;;;8.37;5.00;;;;;;;;;;4953974;29;20409;-45
2021/08/19 14:18:28;;;;;;;5.57;4.80;;;;;;;;;;4953622;28;20898;-45
2021/08/19 14:20:55;;;;;;;4.40;4.00;;;;;;;;;;4953841;29;20556;-46